Terminal Aerodrome Forecast
Issued by NWS Tampa Bay Area, FL

Home | Current Version | Previous Version | Text Only | Print | Product List | Glossary On
Versions: 1 2 3 4 5 6 7 8 9 10 11 12 13 14 15 16 17 18 19 20 21 22 23 24 25
836
FTUS42 KTBW 270531
TAFTPA
TAF
KTPA 270531Z 2706/2806 12005KT P6SM FEW050
     FM271600 23007KT P6SM SCT035
     FM272000 28008KT P6SM SCT050
     FM280000 30006KT P6SM SCT060
     FM280300 05005KT P6SM FEW060=

USA.gov is the U.S. government's official web portal to all federal, state and local government web resources and services.